Aviation Digital Data Service (ADDS)

Output produced by METARs form (2145 UTC 21 May 2022)
found at http://aviationweather.gov/metar/data/
 
TAF LEMH 212000Z 2121/2221 16009KT CAVOK TX30/2212Z TN18/2206Z 
     BECMG 2200/2202 VRB04KT 
     BECMG 2209/2211 16009KT